Terminal Aerodrome Forecast
Issued by NWS Bismarck, ND

Home | Current Version | Previous Version | Graphics & Text | Print | Product List | Glossary On
Versions: 1 2 3 4 5 6 7 8 9 10 11 12 13
541
FTUS43 KBIS 241125
TAFISN
TAF
KISN 241125Z 2412/2512 26009KT P6SM SKC
     FM241700 30012G20KT P6SM SCT060 SCT080
     FM250100 33007KT P6SM FEW080
     FM250300 03004KT P6SM SKC
     FM250500 09004KT P6SM SKC=

USA.gov is the U.S. government's official web portal to all federal, state and local government web resources and services.